createdAt,value
2018-06-15T00:00:25.023Z,62.22
2018-06-15T00:02:58.971Z,62.00
2018-06-15T00:05:27.991Z,61.93
2018-06-15T00:07:57.042Z,61.92
2018-06-15T00:10:25.992Z,61.88
2018-06-15T00:12:54.849Z,61.60
2018-06-15T00:15:23.864Z,61.81
2018-06-15T00:17:59.360Z,62.07
2018-06-15T00:20:28.347Z,62.06
2018-06-15T00:22:57.341Z,61.90
2018-06-15T00:25:26.296Z,61.83
2018-06-15T00:27:55.377Z,61.52
2018-06-15T00:30:24.725Z,61.15
2018-06-15T00:32:53.955Z,61.09
2018-06-15T00:35:22.934Z,61.67
2018-06-15T00:37:51.940Z,61.53
2018-06-15T00:40:20.896Z,61.32
2018-06-15T00:42:50.081Z,61.17
2018-06-15T00:45:19.116Z,61.37
2018-06-15T00:47:48.282Z,61.25
2018-06-15T00:50:17.617Z,61.59
2018-06-15T00:52:46.790Z,61.61
2018-06-15T00:55:15.868Z,61.62
2018-06-15T00:57:48.685Z,61.47
2018-06-15T01:00:18.054Z,61.39
2018-06-15T01:02:47.073Z,61.58
2018-06-15T01:05:16.260Z,61.43
2018-06-15T01:07:45.271Z,61.03
2018-06-15T01:10:14.512Z,60.99
2018-06-15T01:12:43.495Z,61.30
2018-06-15T01:15:12.754Z,60.84
2018-06-15T01:17:41.832Z,60.61
2018-06-15T01:20:10.691Z,60.91
2018-06-15T01:22:39.631Z,60.73
2018-06-15T01:25:08.612Z,61.25
2018-06-15T01:27:37.599Z,61.35
2018-06-15T01:30:07.009Z,61.63
2018-06-15T01:32:36.370Z,61.66
2018-06-15T01:35:05.411Z,61.42
2018-06-15T01:37:34.458Z,61.70
2018-06-15T01:40:03.421Z,61.31
2018-06-15T01:45:22.850Z,61.06
2018-06-15T01:47:52.099Z,61.67
2018-06-15T01:50:21.144Z,61.92
2018-06-15T01:52:50.036Z,61.85
2018-06-15T01:55:18.968Z,62.00
2018-06-15T01:57:48.011Z,62.19
2018-06-15T02:00:17.082Z,62.09
2018-06-15T02:02:46.536Z,62.34
2018-06-15T02:05:15.501Z,62.72
2018-06-15T02:07:44.644Z,62.99
2018-06-15T02:10:13.607Z,63.61
2018-06-15T02:12:42.580Z,63.72
2018-06-15T02:15:11.563Z,63.70
2018-06-15T02:17:40.582Z,63.92
2018-06-15T02:20:09.663Z,63.75
2018-06-15T02:22:38.678Z,64.27
2018-06-15T02:25:07.668Z,64.23
2018-06-15T02:27:36.574Z,64.64
2018-06-15T02:30:05.979Z,65.36
2018-06-15T02:32:34.934Z,66.04
2018-06-15T02:35:03.917Z,65.86
2018-06-15T02:37:32.933Z,65.34
2018-06-15T02:40:01.970Z,65.20
2018-06-15T02:42:30.933Z,65.61
2018-06-15T02:44:59.907Z,66.16
2018-06-15T02:47:28.860Z,66.54
2018-06-15T02:49:57.791Z,66.70
2018-06-15T02:52:26.806Z,66.60
2018-06-15T02:54:55.745Z,66.55
2018-06-15T02:57:24.818Z,66.93
2018-06-15T02:59:53.765Z,66.44
2018-06-15T03:02:22.811Z,66.65
2018-06-15T03:04:51.768Z,66.84
2018-06-15T03:07:20.759Z,67.16
2018-06-15T03:09:49.702Z,67.49
2018-06-15T03:12:18.687Z,67.40
2018-06-15T03:14:47.759Z,67.66
2018-06-15T03:17:16.745Z,67.51
2018-06-15T03:19:45.763Z,67.75
2018-06-15T03:22:14.672Z,68.09
2018-06-15T03:24:43.705Z,68.08
2018-06-15T03:27:12.915Z,68.13
2018-06-15T03:29:42.099Z,67.84
2018-06-15T03:32:11.038Z,68.10
2018-06-15T03:34:40.027Z,67.14
2018-06-15T03:37:08.999Z,67.75
2018-06-15T03:39:38.032Z,67.79
2018-06-15T03:42:07.175Z,67.63
2018-06-15T03:44:36.238Z,67.73
2018-06-15T03:47:05.213Z,67.66
2018-06-15T03:49:36.468Z,67.51
2018-06-15T03:52:05.380Z,67.87
2018-06-15T03:54:34.317Z,68.06
2018-06-15T03:57:03.257Z,68.17
2018-06-15T03:59:31.961Z,68.47
2018-06-15T04:02:01.447Z,68.52
2018-06-15T04:04:30.713Z,68.62
2018-06-15T04:06:59.702Z,68.70
2018-06-15T04:09:28.670Z,69.11
2018-06-15T04:11:57.642Z,69.00
2018-06-15T04:14:26.600Z,68.63
2018-06-15T04:16:55.594Z,68.82
2018-06-15T04:19:24.541Z,68.29
2018-06-15T04:21:53.494Z,68.87
2018-06-15T04:24:22.445Z,68.37
2018-06-15T04:26:51.467Z,67.68
2018-06-15T04:29:20.516Z,67.28
2018-06-15T04:31:49.647Z,66.83
2018-06-15T04:34:18.564Z,66.69
2018-06-15T04:36:47.620Z,66.31
2018-06-15T04:39:16.618Z,65.71
2018-06-15T04:41:45.618Z,65.08
2018-06-15T04:44:14.621Z,64.62
2018-06-15T04:46:43.614Z,64.50
2018-06-15T04:49:12.632Z,64.45
2018-06-15T04:51:41.564Z,64.33
2018-06-15T04:54:10.504Z,64.31
2018-06-15T04:56:39.485Z,64.20
2018-06-15T04:59:08.478Z,64.26
2018-06-15T05:01:37.530Z,64.52
2018-06-15T05:04:06.487Z,64.33
2018-06-15T05:06:35.473Z,64.49
2018-06-15T05:09:06.208Z,64.54
2018-06-15T05:11:35.136Z,64.53
2018-06-15T05:14:04.170Z,64.81
2018-06-15T05:16:33.111Z,64.37
2018-06-15T05:19:02.093Z,64.00
2018-06-15T05:21:30.993Z,63.39
2018-06-15T05:23:59.976Z,63.04
2018-06-15T05:26:28.954Z,62.75
2018-06-15T05:28:58.017Z,62.69
2018-06-15T05:31:27.022Z,62.66
2018-06-15T05:33:56.019Z,63.31
2018-06-15T05:36:24.975Z,61.90
2018-06-15T05:38:53.955Z,61.29
2018-06-15T05:41:22.828Z,60.04
2018-06-15T05:43:51.813Z,59.93
2018-06-15T05:46:20.711Z,59.24
2018-06-15T05:48:49.639Z,56.71
2018-06-15T05:51:18.600Z,57.09
2018-06-15T05:53:47.498Z,57.89
2018-06-15T05:56:16.441Z,57.36
2018-06-15T05:58:45.430Z,57.94
2018-06-15T06:01:14.359Z,58.48
2018-06-15T06:03:43.447Z,59.41
2018-06-15T06:06:12.423Z,59.19
2018-06-15T06:11:31.425Z,59.18
2018-06-15T06:14:00.380Z,59.27
2018-06-15T06:16:29.329Z,58.44
2018-06-15T06:18:58.303Z,58.81
2018-06-15T06:21:27.317Z,58.80
2018-06-15T06:23:56.597Z,58.76
2018-06-15T06:26:25.527Z,59.05
2018-06-15T06:28:54.446Z,58.83
2018-06-15T06:31:23.416Z,58.76
2018-06-15T06:33:52.306Z,58.88
2018-06-15T06:36:21.282Z,58.43
2018-06-15T06:38:50.180Z,55.97
2018-06-15T06:41:19.062Z,55.46
2018-06-15T06:43:48.037Z,55.85
2018-06-15T06:46:17.007Z,56.67
2018-06-15T06:48:46.014Z,55.82
2018-06-15T06:51:14.959Z,56.20
2018-06-15T06:53:43.916Z,56.17
2018-06-15T06:56:12.917Z,56.41
2018-06-15T06:58:41.834Z,54.84
2018-06-15T07:01:10.876Z,55.15
2018-06-15T07:03:39.912Z,55.53
2018-06-15T07:06:08.875Z,54.27
2018-06-15T07:08:37.816Z,54.50
2018-06-15T07:11:06.742Z,52.67
2018-06-15T07:13:35.660Z,54.40
2018-06-15T07:16:04.617Z,54.10
2018-06-15T07:18:33.608Z,54.18
2018-06-15T07:21:02.953Z,52.65
2018-06-15T07:23:32.214Z,53.64
2018-06-15T07:26:01.275Z,53.87
2018-06-15T07:28:30.575Z,53.42
2018-06-15T07:30:59.708Z,53.25
2018-06-15T07:33:28.685Z,53.37
2018-06-15T07:35:57.628Z,53.52
2018-06-15T07:38:26.576Z,54.19
2018-06-15T07:40:55.485Z,53.06
2018-06-15T07:43:24.386Z,53.28
2018-06-15T07:45:53.475Z,53.23
2018-06-15T07:48:22.497Z,52.54
2018-06-15T07:50:51.492Z,52.41
2018-06-15T07:53:20.387Z,51.86
2018-06-15T07:55:49.357Z,51.48
2018-06-15T07:58:18.274Z,51.79
2018-06-15T08:00:47.156Z,51.09
2018-06-15T08:03:16.103Z,50.48
2018-06-15T08:05:45.025Z,50.36
2018-06-15T08:08:14.263Z,49.55
2018-06-15T08:10:43.173Z,49.01
2018-06-15T08:13:20.324Z,48.27
2018-06-15T08:15:49.276Z,49.14
2018-06-15T08:18:18.192Z,49.55
2018-06-15T08:20:47.124Z,48.13
2018-06-15T08:23:24.589Z,48.57
2018-06-15T08:26:03.231Z,48.95
2018-06-15T08:28:40.031Z,49.13
2018-06-15T08:31:16.848Z,48.25
2018-06-15T08:33:56.577Z,48.18
2018-06-15T08:36:36.183Z,48.42
2018-06-15T08:39:16.567Z,49.37
2018-06-15T08:41:55.431Z,49.59
2018-06-15T08:44:32.382Z,49.90
2018-06-15T08:47:09.887Z,50.03
2018-06-15T08:49:47.665Z,50.04
2018-06-15T08:52:16.640Z,49.22
2018-06-15T08:54:48.013Z,49.52
2018-06-15T08:57:16.875Z,50.05
2018-06-15T08:59:47.704Z,50.82
2018-06-15T09:02:16.836Z,50.24
2018-06-15T09:04:45.764Z,49.77
2018-06-15T09:07:14.708Z,47.59
2018-06-15T09:09:43.594Z,48.04
2018-06-15T09:12:12.579Z,48.49
2018-06-15T09:14:41.504Z,50.22
2018-06-15T09:17:10.450Z,50.13
2018-06-15T09:19:39.360Z,50.74
2018-06-15T09:22:08.275Z,50.81
2018-06-15T09:24:37.181Z,50.77
2018-06-15T09:27:06.155Z,50.19
2018-06-15T09:29:35.097Z,51.08
2018-06-15T09:32:04.588Z,50.87
2018-06-15T09:34:33.462Z,49.71
2018-06-15T09:37:02.785Z,49.40
2018-06-15T09:39:31.871Z,48.68
2018-06-15T09:42:00.884Z,43.65
2018-06-15T09:44:31.222Z,43.30
2018-06-15T09:47:00.208Z,45.42
2018-06-15T09:49:29.212Z,45.63
2018-06-15T09:52:01.268Z,44.27
2018-06-15T09:54:31.016Z,44.99
2018-06-15T09:57:00.142Z,44.07
2018-06-15T09:59:29.271Z,43.06
2018-06-15T10:01:58.276Z,43.93
2018-06-15T10:04:28.192Z,43.26
2018-06-15T10:06:57.347Z,42.97
2018-06-15T10:09:37.993Z,42.52
2018-06-15T10:12:07.323Z,41.92
2018-06-15T10:14:36.275Z,41.94
2018-06-15T10:17:05.404Z,42.29
2018-06-15T10:19:34.463Z,43.29
2018-06-15T10:22:03.595Z,42.82
2018-06-15T10:24:32.535Z,42.01
2018-06-15T10:27:01.450Z,40.43
2018-06-15T10:29:30.361Z,40.48
2018-06-15T10:31:59.243Z,40.03
2018-06-15T10:34:28.102Z,40.83
2018-06-15T10:36:57.047Z,41.40
2018-06-15T10:39:25.980Z,42.09
2018-06-15T10:41:56.378Z,42.28
2018-06-15T10:44:25.345Z,41.96
2018-06-15T10:46:54.257Z,40.53
2018-06-15T10:49:23.321Z,40.97
2018-06-15T10:51:52.233Z,40.28
2018-06-15T10:54:21.101Z,41.57
2018-06-15T10:56:49.951Z,42.46
2018-06-15T10:59:18.908Z,42.52
2018-06-15T11:01:47.768Z,42.71
2018-06-15T11:04:16.726Z,41.30
2018-06-15T11:06:45.618Z,42.67
2018-06-15T11:09:14.482Z,42.34
2018-06-15T11:11:43.433Z,41.64
2018-06-15T11:14:12.281Z,40.19
2018-06-15T11:16:41.178Z,39.67
2018-06-15T11:19:10.046Z,40.91
2018-06-15T11:21:38.907Z,41.47
2018-06-15T11:24:07.778Z,42.63
2018-06-15T11:26:36.701Z,41.67
2018-06-15T11:29:05.806Z,41.44
2018-06-15T11:31:34.654Z,41.56
2018-06-15T11:34:03.470Z,42.24
2018-06-15T11:36:32.325Z,42.18
2018-06-15T11:39:01.393Z,42.20
2018-06-15T11:41:30.293Z,41.83
2018-06-15T11:43:59.409Z,40.00
2018-06-15T11:46:28.317Z,40.52
2018-06-15T11:48:57.205Z,40.89
2018-06-15T11:51:26.861Z,41.46
2018-06-15T11:53:55.840Z,42.99
2018-06-15T11:56:24.969Z,41.67
2018-06-15T11:58:53.924Z,42.58
2018-06-15T12:01:22.826Z,42.63
2018-06-15T12:03:51.860Z,43.11
2018-06-15T12:06:21.819Z,44.37
2018-06-15T12:08:50.671Z,44.39
2018-06-15T12:11:19.704Z,43.17
2018-06-15T12:13:48.702Z,42.59
2018-06-15T12:16:17.601Z,43.80
2018-06-15T12:18:46.504Z,43.62
2018-06-15T12:21:15.381Z,43.91
2018-06-15T12:26:34.347Z,44.44
2018-06-15T12:29:03.298Z,44.89
2018-06-15T12:31:32.300Z,44.70
2018-06-15T12:34:01.419Z,44.06
2018-06-15T12:36:30.300Z,44.07
2018-06-15T12:38:59.299Z,44.04
2018-06-15T12:41:28.228Z,43.74
2018-06-15T12:43:57.047Z,43.50
2018-06-15T12:46:25.886Z,41.57
2018-06-15T12:48:54.709Z,42.13
2018-06-15T12:51:23.591Z,42.52
2018-06-15T12:53:52.524Z,42.99
2018-06-15T12:56:21.402Z,42.71
2018-06-15T12:58:50.423Z,42.90
2018-06-15T13:01:19.310Z,43.09
2018-06-15T13:03:48.636Z,42.91
2018-06-15T13:06:20.109Z,42.58
2018-06-15T13:08:49.055Z,43.60
2018-06-15T13:11:17.903Z,43.84
2018-06-15T13:13:46.776Z,42.59
2018-06-15T13:16:15.602Z,44.23
2018-06-15T13:18:44.406Z,44.27
2018-06-15T13:21:13.374Z,43.88
2018-06-15T13:23:42.278Z,43.29
2018-06-15T13:26:11.119Z,43.51
2018-06-15T13:29:05.475Z,44.43
2018-06-15T13:31:51.947Z,43.84
2018-06-15T13:34:21.922Z,43.52
2018-06-15T13:39:41.606Z,45.08
2018-06-15T13:42:26.729Z,45.97
2018-06-15T13:49:12.571Z,46.31
2018-06-15T13:51:41.692Z,46.93
2018-06-15T13:54:13.531Z,46.46
2018-06-15T13:56:43.205Z,47.09
2018-06-15T13:59:16.622Z,46.40
2018-06-15T14:01:45.594Z,45.83
2018-06-15T14:04:15.493Z,45.50
2018-06-15T14:06:45.200Z,45.80
2018-06-15T14:09:14.054Z,44.98
2018-06-15T14:11:42.961Z,45.63
2018-06-15T14:14:12.152Z,45.34
2018-06-15T14:20:54.962Z,45.07
2018-06-15T14:23:25.937Z,45.18
2018-06-15T14:25:58.785Z,43.83
2018-06-15T14:28:55.553Z,44.51
2018-06-15T14:31:25.280Z,44.17
2018-06-15T14:33:56.443Z,44.48
2018-06-15T14:36:26.476Z,44.88
2018-06-15T14:38:55.203Z,45.14
2018-06-15T14:41:25.815Z,45.47
2018-06-15T14:43:55.542Z,44.30
2018-06-15T14:46:24.875Z,44.59
2018-06-15T14:48:54.077Z,45.65
2018-06-15T14:51:22.931Z,45.29
2018-06-15T14:53:57.151Z,45.74
2018-06-15T14:56:25.923Z,45.33
2018-06-15T14:58:57.867Z,44.45
2018-06-15T15:01:30.112Z,44.78
2018-06-15T15:03:59.300Z,45.34
2018-06-15T15:06:28.129Z,46.20
2018-06-15T15:08:56.933Z,46.15
2018-06-15T15:11:25.899Z,45.06
2018-06-15T15:13:54.717Z,46.85
2018-06-15T15:16:26.284Z,46.30
2018-06-15T15:18:56.913Z,46.07
2018-06-15T15:21:30.810Z,45.32
2018-06-15T15:23:59.861Z,45.54
2018-06-15T15:26:29.512Z,44.69
2018-06-15T15:28:58.573Z,44.92
2018-06-15T15:31:28.060Z,45.34
2018-06-15T15:34:01.759Z,45.24
2018-06-15T15:36:34.976Z,46.16
2018-06-15T15:39:05.345Z,46.63
2018-06-15T15:41:34.253Z,46.46
2018-06-15T15:44:03.380Z,46.15
2018-06-15T15:46:50.573Z,47.90
2018-06-15T15:49:19.460Z,46.97
2018-06-15T15:51:54.599Z,47.44
2018-06-15T15:54:24.334Z,47.66
2018-06-15T15:56:53.742Z,46.73
2018-06-15T15:59:29.207Z,45.42
2018-06-15T16:01:58.383Z,46.27
2018-06-15T16:04:37.573Z,46.42
2018-06-15T16:07:06.752Z,47.04
2018-06-15T16:09:36.627Z,46.61
2018-06-15T16:12:07.800Z,46.25
2018-06-15T16:14:36.806Z,47.34
2018-06-15T16:17:05.987Z,47.44
2018-06-15T16:19:34.920Z,47.27
2018-06-15T16:22:03.969Z,47.32
2018-06-15T16:24:32.908Z,47.31
2018-06-15T16:27:01.905Z,47.73
2018-06-15T16:29:30.869Z,47.93
2018-06-15T16:32:00.118Z,47.45
2018-06-15T16:34:28.975Z,47.37
2018-06-15T16:36:58.959Z,47.17
2018-06-15T16:39:27.915Z,47.57
2018-06-15T16:41:57.092Z,47.74
2018-06-15T16:44:28.256Z,47.03
2018-06-15T16:46:57.360Z,46.95
2018-06-15T16:49:26.402Z,47.85
2018-06-15T16:51:55.507Z,47.41
2018-06-15T16:54:26.604Z,45.46
2018-06-15T16:56:55.658Z,46.52
2018-06-15T16:59:28.708Z,46.59
2018-06-15T17:02:04.241Z,47.70
2018-06-15T17:04:33.242Z,47.76
2018-06-15T17:07:02.708Z,47.80
2018-06-15T17:12:08.574Z,47.49
2018-06-15T17:14:44.525Z,46.27
2018-06-15T17:17:13.726Z,46.54
2018-06-15T17:19:43.345Z,46.44
2018-06-15T17:22:13.059Z,46.69
2018-06-15T17:24:42.086Z,46.76
2018-06-15T17:27:11.047Z,46.83
2018-06-15T17:29:40.088Z,46.76
2018-06-15T17:32:09.120Z,47.23
2018-06-15T17:34:38.160Z,47.02
2018-06-15T17:37:07.386Z,46.07
2018-06-15T17:39:36.376Z,47.08
2018-06-15T17:42:09.066Z,47.16
2018-06-15T17:44:38.216Z,46.78
2018-06-15T17:47:14.725Z,48.62
2018-06-15T17:49:46.915Z,49.34
2018-06-15T17:52:15.857Z,49.84
2018-06-15T17:54:45.621Z,49.16
2018-06-15T17:57:15.739Z,49.04
2018-06-15T17:59:44.950Z,48.91
2018-06-15T18:02:13.940Z,49.24
2018-06-15T18:04:55.084Z,49.51
2018-06-15T18:07:23.761Z,50.16
2018-06-15T18:09:53.249Z,51.61
2018-06-15T18:12:24.261Z,52.83
2018-06-15T18:14:53.398Z,52.98
2018-06-15T18:17:22.599Z,53.32
2018-06-15T18:19:53.245Z,53.58
2018-06-15T18:22:22.403Z,54.57
2018-06-15T18:25:01.657Z,55.16
2018-06-15T18:27:31.369Z,55.86
2018-06-15T18:30:01.192Z,56.09
2018-06-15T18:32:34.635Z,56.53
2018-06-15T18:35:06.743Z,57.10
2018-06-15T18:37:35.773Z,57.36
2018-06-15T18:40:05.979Z,57.38
2018-06-15T18:42:35.110Z,57.85
2018-06-15T18:45:17.556Z,57.85
2018-06-15T18:47:46.511Z,58.13
2018-06-15T18:50:15.534Z,59.01
2018-06-15T18:52:50.986Z,58.75
2018-06-15T18:55:20.615Z,58.95
2018-06-15T18:57:49.801Z,59.29
2018-06-15T19:00:33.813Z,59.58
2018-06-15T19:03:02.860Z,60.33
2018-06-15T19:05:43.986Z,60.21
2018-06-15T19:08:13.163Z,60.74
2018-06-15T19:10:52.329Z,61.05
2018-06-15T19:13:26.977Z,60.77
2018-06-15T19:15:56.071Z,60.35
2018-06-15T19:18:31.462Z,59.96
2018-06-15T19:21:00.689Z,59.47
2018-06-15T19:23:29.715Z,58.95
2018-06-15T19:26:13.702Z,58.94
2018-06-15T19:28:48.142Z,59.80
2018-06-15T19:31:17.144Z,60.09
2018-06-15T19:33:46.724Z,59.97
2018-06-15T19:36:15.764Z,59.88
2018-06-15T19:38:48.556Z,59.91
2018-06-15T19:41:37.434Z,60.08
2018-06-15T19:44:06.578Z,59.61
2018-06-15T19:46:35.801Z,59.77
2018-06-15T19:49:04.918Z,59.34
2018-06-15T19:51:34.042Z,59.40
2018-06-15T19:54:03.154Z,59.31
2018-06-15T19:56:34.550Z,59.56
2018-06-15T19:59:04.885Z,60.06
2018-06-15T20:01:45.941Z,59.87
2018-06-15T20:04:28.249Z,60.39
2018-06-15T20:07:01.089Z,60.72
2018-06-15T20:09:32.085Z,60.09
2018-06-15T20:12:01.136Z,60.25
2018-06-15T20:17:10.507Z,59.93
2018-06-15T20:19:40.005Z,59.52
2018-06-15T20:22:21.899Z,59.03
2018-06-15T20:24:50.972Z,59.28
2018-06-15T20:27:20.070Z,59.67
2018-06-15T20:29:52.361Z,59.52
2018-06-15T20:32:21.343Z,59.05
2018-06-15T20:34:57.603Z,59.22
2018-06-15T20:37:29.103Z,59.35
2018-06-15T20:40:04.882Z,59.39
2018-06-15T20:42:43.504Z,59.59
2018-06-15T20:45:12.534Z,59.43
2018-06-15T20:47:41.550Z,59.61
2018-06-15T20:50:10.456Z,60.59
2018-06-15T21:15:43.689Z,60.92
2018-06-15T21:18:13.065Z,61.10
2018-06-15T21:20:42.340Z,61.00
2018-06-15T21:23:11.399Z,61.45
2018-06-15T21:25:47.385Z,61.61
2018-06-15T21:28:16.665Z,62.34
2018-06-15T21:30:45.777Z,62.37
2018-06-15T21:33:14.843Z,62.08
2018-06-15T21:38:31.825Z,62.74
2018-06-15T21:41:00.931Z,62.52
2018-06-15T21:43:29.965Z,62.31
2018-06-15T21:45:58.996Z,62.78
2018-06-15T21:48:28.972Z,62.55
2018-06-15T21:50:58.082Z,62.53
2018-06-15T21:53:33.694Z,62.78
2018-06-15T21:56:04.092Z,63.22
2018-06-15T21:58:33.225Z,63.37
2018-06-15T22:01:02.571Z,63.58
2018-06-15T22:03:31.819Z,63.40
2018-06-15T22:06:00.699Z,63.25
2018-06-15T22:08:29.639Z,63.39
2018-06-15T22:10:58.423Z,63.15
2018-06-15T22:13:27.176Z,63.88
2018-06-15T22:15:56.845Z,63.46
2018-06-15T22:18:25.897Z,63.06
2018-06-15T22:20:55.055Z,62.43
2018-06-15T22:23:24.167Z,62.23
2018-06-15T22:25:53.264Z,62.53
2018-06-15T22:28:22.018Z,62.28
2018-06-15T22:30:50.757Z,62.05
2018-06-15T22:33:19.699Z,62.32
2018-06-15T22:35:49.300Z,62.51
2018-06-15T22:38:33.133Z,62.17
2018-06-15T22:44:11.132Z,61.33
2018-06-15T22:46:52.127Z,60.63
2018-06-15T23:03:33.580Z,60.43
2018-06-15T23:20:27.978Z,59.31
2018-06-15T23:23:09.833Z,58.94
2018-06-15T23:25:51.343Z,58.44
2018-06-15T23:28:31.557Z,58.89
2018-06-15T23:31:01.319Z,58.79
2018-06-15T23:33:30.888Z,58.53
2018-06-15T23:35:59.869Z,58.54
2018-06-15T23:38:28.613Z,58.41
2018-06-15T23:40:57.240Z,58.74
2018-06-15T23:43:26.191Z,58.46
2018-06-15T23:45:54.948Z,58.19
2018-06-15T23:48:23.644Z,58.80
2018-06-15T23:50:52.394Z,58.39
2018-06-15T23:53:21.296Z,59.06
2018-06-15T23:55:50.409Z,59.45
2018-06-15T23:58:19.589Z,59.67
